sensor_id;sensor_type;location;lat;lon;timestamp;P1;durP1;ratioP1;P2;durP2;ratioP2
34832;SDS011;55941;50.800;4.342;2023-02-26T00:01:25;20.70;;;3.40;;
34832;SDS011;55941;50.800;4.342;2023-02-26T00:03:57;20.42;;;3.70;;
34832;SDS011;55941;50.800;4.342;2023-02-26T00:06:25;23.90;;;3.80;;
34832;SDS011;55941;50.800;4.342;2023-02-26T00:08:52;23.10;;;3.97;;
34832;SDS011;55941;50.800;4.342;2023-02-26T00:11:18;17.23;;;4.10;;
34832;SDS011;55941;50.800;4.342;2023-02-26T00:13:44;28.67;;;4.05;;
34832;SDS011;55941;50.800;4.342;2023-02-26T00:18:45;15.43;;;3.58;;
34832;SDS011;55941;50.800;4.342;2023-02-26T00:21:18;25.02;;;3.67;;
34832;SDS011;55941;50.800;4.342;2023-02-26T00:23:45;18.85;;;3.65;;
34832;SDS011;55941;50.800;4.342;2023-02-26T00:26:11;21.65;;;3.75;;
34832;SDS011;55941;50.800;4.342;2023-02-26T00:28:37;17.20;;;3.60;;
34832;SDS011;55941;50.800;4.342;2023-02-26T00:31:05;25.25;;;3.90;;
34832;SDS011;55941;50.800;4.342;2023-02-26T00:33:31;21.80;;;4.45;;
34832;SDS011;55941;50.800;4.342;2023-02-26T00:38:56;19.40;;;3.90;;
34832;SDS011;55941;50.800;4.342;2023-02-26T00:41:44;17.15;;;4.30;;
34832;SDS011;55941;50.800;4.342;2023-02-26T00:44:10;23.35;;;4.40;;
34832;SDS011;55941;50.800;4.342;2023-02-26T00:52:03;22.45;;;3.97;;
34832;SDS011;55941;50.800;4.342;2023-02-26T00:54:34;15.80;;;3.72;;
34832;SDS011;55941;50.800;4.342;2023-02-26T00:57:00;25.33;;;4.45;;
34832;SDS011;55941;50.800;4.342;2023-02-26T00:59:28;18.52;;;3.65;;
34832;SDS011;55941;50.800;4.342;2023-02-26T01:01:54;15.68;;;4.18;;
34832;SDS011;55941;50.800;4.342;2023-02-26T01:04:21;19.48;;;3.72;;
34832;SDS011;55941;50.800;4.342;2023-02-26T01:06:52;19.52;;;3.15;;
34832;SDS011;55941;50.800;4.342;2023-02-26T01:09:22;19.05;;;3.38;;
34832;SDS011;55941;50.800;4.342;2023-02-26T01:11:53;18.98;;;3.53;;
34832;SDS011;55941;50.800;4.342;2023-02-26T01:14:20;15.98;;;3.42;;
34832;SDS011;55941;50.800;4.342;2023-02-26T01:22:17;17.65;;;3.90;;
34832;SDS011;55941;50.800;4.342;2023-02-26T01:24:43;20.95;;;3.50;;
34832;SDS011;55941;50.800;4.342;2023-02-26T01:27:12;18.33;;;4.50;;
34832;SDS011;55941;50.800;4.342;2023-02-26T01:29:39;18.40;;;4.03;;
34832;SDS011;55941;50.800;4.342;2023-02-26T01:32:11;14.73;;;3.60;;
34832;SDS011;55941;50.800;4.342;2023-02-26T01:43:44;21.25;;;4.00;;
34832;SDS011;55941;50.800;4.342;2023-02-26T01:51:17;22.85;;;4.05;;
34832;SDS011;55941;50.800;4.342;2023-02-26T01:54:03;25.73;;;4.03;;
34832;SDS011;55941;50.800;4.342;2023-02-26T01:56:29;14.02;;;3.13;;
34832;SDS011;55941;50.800;4.342;2023-02-26T01:58:55;17.80;;;3.60;;
34832;SDS011;55941;50.800;4.342;2023-02-26T02:01:21;26.02;;;4.22;;
34832;SDS011;55941;50.800;4.342;2023-02-26T02:03:47;10.15;;;2.83;;
34832;SDS011;55941;50.800;4.342;2023-02-26T02:06:17;25.55;;;3.50;;
34832;SDS011;55941;50.800;4.342;2023-02-26T02:08:48;17.52;;;3.42;;
34832;SDS011;55941;50.800;4.342;2023-02-26T02:11:14;13.98;;;3.13;;
34832;SDS011;55941;50.800;4.342;2023-02-26T02:13:47;16.33;;;3.40;;
34832;SDS011;55941;50.800;4.342;2023-02-26T02:28:13;16.92;;;3.08;;
34832;SDS011;55941;50.800;4.342;2023-02-26T02:31:05;9.43;;;3.00;;
34832;SDS011;55941;50.800;4.342;2023-02-26T02:33:52;15.98;;;3.15;;
34832;SDS011;55941;50.800;4.342;2023-02-26T02:39:15;14.60;;;2.83;;
34832;SDS011;55941;50.800;4.342;2023-02-26T02:41:47;17.50;;;3.00;;
34832;SDS011;55941;50.800;4.342;2023-02-26T02:44:18;17.45;;;3.17;;
34832;SDS011;55941;50.800;4.342;2023-02-26T02:46:47;23.17;;;3.00;;
34832;SDS011;55941;50.800;4.342;2023-02-26T02:49:22;20.75;;;3.25;;
34832;SDS011;55941;50.800;4.342;2023-02-26T02:51:54;20.13;;;3.17;;
34832;SDS011;55941;50.800;4.342;2023-02-26T02:54:40;15.20;;;3.80;;
34832;SDS011;55941;50.800;4.342;2023-02-26T02:57:33;18.00;;;2.60;;
34832;SDS011;55941;50.800;4.342;2023-02-26T03:00:05;14.43;;;3.00;;
34832;SDS011;55941;50.800;4.342;2023-02-26T03:05:21;12.57;;;2.63;;
34832;SDS011;55941;50.800;4.342;2023-02-26T03:08:06;16.10;;;2.50;;
34832;SDS011;55941;50.800;4.342;2023-02-26T03:10:35;16.30;;;3.05;;
34832;SDS011;55941;50.800;4.342;2023-02-26T03:13:01;9.93;;;2.78;;
34832;SDS011;55941;50.800;4.342;2023-02-26T03:21:29;17.70;;;2.65;;
34832;SDS011;55941;50.800;4.342;2023-02-26T03:27:38;20.95;;;3.30;;
34832;SDS011;55941;50.800;4.342;2023-02-26T03:30:19;21.40;;;3.35;;
34832;SDS011;55941;50.800;4.342;2023-02-26T03:37:55;12.93;;;2.25;;
34832;SDS011;55941;50.800;4.342;2023-02-26T03:40:26;12.87;;;2.00;;
34832;SDS011;55941;50.800;4.342;2023-02-26T03:43:08;22.77;;;2.72;;
34832;SDS011;55941;50.800;4.342;2023-02-26T03:45:44;11.13;;;3.08;;
34832;SDS011;55941;50.800;4.342;2023-02-26T03:48:14;9.63;;;2.22;;
34832;SDS011;55941;50.800;4.342;2023-02-26T03:50:46;13.70;;;2.65;;
34832;SDS011;55941;50.800;4.342;2023-02-26T03:53:22;12.68;;;2.22;;
34832;SDS011;55941;50.800;4.342;2023-02-26T03:56:05;16.08;;;2.60;;
34832;SDS011;55941;50.800;4.342;2023-02-26T03:58:53;10.18;;;2.25;;
34832;SDS011;55941;50.800;4.342;2023-02-26T04:01:24;10.18;;;2.38;;
34832;SDS011;55941;50.800;4.342;2023-02-26T04:07:00;10.75;;;1.95;;
34832;SDS011;55941;50.800;4.342;2023-02-26T04:09:26;12.85;;;2.13;;
34832;SDS011;55941;50.800;4.342;2023-02-26T04:11:52;11.98;;;2.42;;
34832;SDS011;55941;50.800;4.342;2023-02-26T04:14:20;12.20;;;2.20;;
34832;SDS011;55941;50.800;4.342;2023-02-26T04:16:46;8.02;;;2.05;;
34832;SDS011;55941;50.800;4.342;2023-02-26T04:19:13;14.02;;;2.50;;
34832;SDS011;55941;50.800;4.342;2023-02-26T04:21:39;12.43;;;2.10;;
34832;SDS011;55941;50.800;4.342;2023-02-26T04:24:05;8.43;;;2.15;;
34832;SDS011;55941;50.800;4.342;2023-02-26T04:26:30;15.95;;;3.35;;
34832;SDS011;55941;50.800;4.342;2023-02-26T04:28:56;8.13;;;1.80;;
34832;SDS011;55941;50.800;4.342;2023-02-26T04:31:22;9.13;;;2.38;;
34832;SDS011;55941;50.800;4.342;2023-02-26T04:33:48;14.82;;;2.30;;
34832;SDS011;55941;50.800;4.342;2023-02-26T04:36:14;10.90;;;2.17;;
34832;SDS011;55941;50.800;4.342;2023-02-26T04:38:40;13.55;;;2.92;;
34832;SDS011;55941;50.800;4.342;2023-02-26T04:41:06;10.60;;;2.15;;
34832;SDS011;55941;50.800;4.342;2023-02-26T04:43:32;11.85;;;2.03;;
34832;SDS011;55941;50.800;4.342;2023-02-26T04:45:58;17.05;;;2.35;;
34832;SDS011;55941;50.800;4.342;2023-02-26T04:48:24;12.45;;;2.45;;
34832;SDS011;55941;50.800;4.342;2023-02-26T04:50:50;10.13;;;2.78;;
34832;SDS011;55941;50.800;4.342;2023-02-26T04:53:16;11.65;;;2.05;;
34832;SDS011;55941;50.800;4.342;2023-02-26T04:55:42;15.45;;;2.63;;
34832;SDS011;55941;50.800;4.342;2023-02-26T04:58:07;11.77;;;2.17;;
34832;SDS011;55941;50.800;4.342;2023-02-26T05:00:34;11.27;;;1.92;;
34832;SDS011;55941;50.800;4.342;2023-02-26T05:03:00;10.70;;;2.17;;
34832;SDS011;55941;50.800;4.342;2023-02-26T05:05:26;16.67;;;2.08;;
34832;SDS011;55941;50.800;4.342;2023-02-26T05:07:52;14.30;;;2.03;;
34832;SDS011;55941;50.800;4.342;2023-02-26T05:10:20;10.77;;;1.60;;
34832;SDS011;55941;50.800;4.342;2023-02-26T05:12:46;11.43;;;2.03;;
34832;SDS011;55941;50.800;4.342;2023-02-26T05:15:13;13.25;;;2.22;;
34832;SDS011;55941;50.800;4.342;2023-02-26T05:17:39;12.45;;;2.33;;
34832;SDS011;55941;50.800;4.342;2023-02-26T05:20:05;7.28;;;2.38;;
34832;SDS011;55941;50.800;4.342;2023-02-26T05:22:34;15.93;;;2.08;;
34832;SDS011;55941;50.800;4.342;2023-02-26T05:25:01;10.18;;;2.20;;
34832;SDS011;55941;50.800;4.342;2023-02-26T05:27:26;11.27;;;2.10;;
34832;SDS011;55941;50.800;4.342;2023-02-26T05:29:52;11.73;;;1.63;;
34832;SDS011;55941;50.800;4.342;2023-02-26T05:32:18;13.65;;;2.95;;
34832;SDS011;55941;50.800;4.342;2023-02-26T05:34:44;12.02;;;2.00;;
34832;SDS011;55941;50.800;4.342;2023-02-26T05:37:09;10.57;;;1.75;;
34832;SDS011;55941;50.800;4.342;2023-02-26T05:39:35;8.63;;;1.92;;
34832;SDS011;55941;50.800;4.342;2023-02-26T05:42:01;12.73;;;1.98;;
34832;SDS011;55941;50.800;4.342;2023-02-26T05:44:27;15.82;;;2.70;;
34832;SDS011;55941;50.800;4.342;2023-02-26T05:46:53;16.08;;;1.88;;
34832;SDS011;55941;50.800;4.342;2023-02-26T05:49:19;15.00;;;2.13;;
34832;SDS011;55941;50.800;4.342;2023-02-26T05:51:45;12.05;;;2.22;;
34832;SDS011;55941;50.800;4.342;2023-02-26T05:54:10;13.88;;;2.35;;
34832;SDS011;55941;50.800;4.342;2023-02-26T05:56:38;11.68;;;2.00;;
34832;SDS011;55941;50.800;4.342;2023-02-26T05:59:04;15.23;;;2.38;;
34832;SDS011;55941;50.800;4.342;2023-02-26T06:01:30;15.00;;;2.10;;
34832;SDS011;55941;50.800;4.342;2023-02-26T06:03:56;11.52;;;1.90;;
34832;SDS011;55941;50.800;4.342;2023-02-26T06:06:22;7.57;;;2.08;;
34832;SDS011;55941;50.800;4.342;2023-02-26T06:08:49;13.38;;;2.00;;
34832;SDS011;55941;50.800;4.342;2023-02-26T06:11:15;15.63;;;2.05;;
34832;SDS011;55941;50.800;4.342;2023-02-26T06:13:40;11.10;;;1.90;;
34832;SDS011;55941;50.800;4.342;2023-02-26T06:16:06;8.63;;;1.25;;
34832;SDS011;55941;50.800;4.342;2023-02-26T06:18:32;16.27;;;2.10;;
34832;SDS011;55941;50.800;4.342;2023-02-26T06:20:58;13.48;;;2.55;;
34832;SDS011;55941;50.800;4.342;2023-02-26T06:23:25;15.75;;;2.00;;
34832;SDS011;55941;50.800;4.342;2023-02-26T06:25:52;15.30;;;2.00;;
34832;SDS011;55941;50.800;4.342;2023-02-26T06:28:18;11.45;;;1.98;;
34832;SDS011;55941;50.800;4.342;2023-02-26T06:30:45;9.25;;;1.90;;
34832;SDS011;55941;50.800;4.342;2023-02-26T06:33:11;19.38;;;2.42;;
34832;SDS011;55941;50.800;4.342;2023-02-26T06:35:37;7.78;;;1.80;;
34832;SDS011;55941;50.800;4.342;2023-02-26T06:38:03;6.45;;;1.50;;
34832;SDS011;55941;50.800;4.342;2023-02-26T06:40:29;11.88;;;2.25;;
34832;SDS011;55941;50.800;4.342;2023-02-26T06:42:55;13.75;;;2.00;;
34832;SDS011;55941;50.800;4.342;2023-02-26T06:45:21;9.07;;;2.00;;
34832;SDS011;55941;50.800;4.342;2023-02-26T06:47:49;16.13;;;1.80;;
34832;SDS011;55941;50.800;4.342;2023-02-26T06:50:15;10.23;;;1.65;;
34832;SDS011;55941;50.800;4.342;2023-02-26T06:52:41;10.35;;;1.80;;
34832;SDS011;55941;50.800;4.342;2023-02-26T06:55:07;9.70;;;1.77;;
34832;SDS011;55941;50.800;4.342;2023-02-26T06:57:33;10.80;;;1.88;;
34832;SDS011;55941;50.800;4.342;2023-02-26T06:59:59;12.55;;;1.77;;
34832;SDS011;55941;50.800;4.342;2023-02-26T07:02:25;21.50;;;2.17;;
34832;SDS011;55941;50.800;4.342;2023-02-26T07:04:51;13.90;;;2.05;;
34832;SDS011;55941;50.800;4.342;2023-02-26T07:07:17;8.38;;;1.92;;
34832;SDS011;55941;50.800;4.342;2023-02-26T07:09:42;10.90;;;1.45;;
34832;SDS011;55941;50.800;4.342;2023-02-26T07:12:08;7.90;;;1.58;;
34832;SDS011;55941;50.800;4.342;2023-02-26T07:14:34;8.35;;;1.67;;
34832;SDS011;55941;50.800;4.342;2023-02-26T07:17:00;12.90;;;1.90;;
34832;SDS011;55941;50.800;4.342;2023-02-26T07:19:26;17.55;;;2.03;;
34832;SDS011;55941;50.800;4.342;2023-02-26T07:21:52;10.93;;;1.77;;
34832;SDS011;55941;50.800;4.342;2023-02-26T07:24:19;12.68;;;1.90;;
34832;SDS011;55941;50.800;4.342;2023-02-26T07:26:45;19.48;;;2.38;;
34832;SDS011;55941;50.800;4.342;2023-02-26T07:29:12;5.78;;;1.65;;
34832;SDS011;55941;50.800;4.342;2023-02-26T07:31:38;16.85;;;1.88;;
34832;SDS011;55941;50.800;4.342;2023-02-26T07:34:04;17.73;;;1.52;;
34832;SDS011;55941;50.800;4.342;2023-02-26T07:36:30;9.68;;;1.77;;
34832;SDS011;55941;50.800;4.342;2023-02-26T07:38:56;16.02;;;1.98;;
34832;SDS011;55941;50.800;4.342;2023-02-26T07:41:22;10.95;;;1.67;;
34832;SDS011;55941;50.800;4.342;2023-02-26T07:43:47;12.00;;;2.05;;
34832;SDS011;55941;50.800;4.342;2023-02-26T07:46:14;8.90;;;2.05;;
34832;SDS011;55941;50.800;4.342;2023-02-26T07:48:40;9.30;;;2.28;;
34832;SDS011;55941;50.800;4.342;2023-02-26T07:51:06;10.23;;;1.65;;
34832;SDS011;55941;50.800;4.342;2023-02-26T07:53:32;16.88;;;2.28;;
34832;SDS011;55941;50.800;4.342;2023-02-26T07:55:59;16.27;;;2.40;;
34832;SDS011;55941;50.800;4.342;2023-02-26T07:58:25;16.33;;;1.58;;
34832;SDS011;55941;50.800;4.342;2023-02-26T08:00:50;16.80;;;1.83;;
34832;SDS011;55941;50.800;4.342;2023-02-26T08:03:17;9.57;;;1.40;;
34832;SDS011;55941;50.800;4.342;2023-02-26T08:05:43;15.00;;;1.90;;
34832;SDS011;55941;50.800;4.342;2023-02-26T08:08:09;12.88;;;1.83;;
34832;SDS011;55941;50.800;4.342;2023-02-26T08:10:35;7.40;;;1.33;;
34832;SDS011;55941;50.800;4.342;2023-02-26T08:13:03;6.50;;;1.50;;
34832;SDS011;55941;50.800;4.342;2023-02-26T08:15:29;7.90;;;1.90;;
34832;SDS011;55941;50.800;4.342;2023-02-26T08:17:55;7.43;;;1.50;;
34832;SDS011;55941;50.800;4.342;2023-02-26T08:20:21;8.18;;;1.83;;
34832;SDS011;55941;50.800;4.342;2023-02-26T08:22:48;16.65;;;2.83;;
34832;SDS011;55941;50.800;4.342;2023-02-26T08:25:15;8.50;;;2.67;;
34832;SDS011;55941;50.800;4.342;2023-02-26T08:27:41;17.35;;;2.17;;
34832;SDS011;55941;50.800;4.342;2023-02-26T08:30:07;14.18;;;2.00;;
34832;SDS011;55941;50.800;4.342;2023-02-26T08:32:34;16.83;;;2.00;;
34832;SDS011;55941;50.800;4.342;2023-02-26T08:35:00;11.40;;;2.28;;
34832;SDS011;55941;50.800;4.342;2023-02-26T08:37:26;13.27;;;2.20;;
34832;SDS011;55941;50.800;4.342;2023-02-26T08:39:51;9.20;;;1.65;;
34832;SDS011;55941;50.800;4.342;2023-02-26T08:42:17;11.57;;;2.40;;
34832;SDS011;55941;50.800;4.342;2023-02-26T08:44:44;7.10;;;1.70;;
34832;SDS011;55941;50.800;4.342;2023-02-26T08:47:11;9.75;;;1.73;;
34832;SDS011;55941;50.800;4.342;2023-02-26T08:49:37;9.13;;;2.00;;
34832;SDS011;55941;50.800;4.342;2023-02-26T08:52:03;15.43;;;2.50;;
34832;SDS011;55941;50.800;4.342;2023-02-26T08:54:28;8.60;;;2.10;;
34832;SDS011;55941;50.800;4.342;2023-02-26T08:56:54;10.32;;;1.58;;
34832;SDS011;55941;50.800;4.342;2023-02-26T08:59:22;8.38;;;1.52;;
34832;SDS011;55941;50.800;4.342;2023-02-26T09:01:48;11.93;;;1.83;;
34832;SDS011;55941;50.800;4.342;2023-02-26T09:04:14;13.27;;;1.73;;
34832;SDS011;55941;50.800;4.342;2023-02-26T09:06:40;12.80;;;2.30;;
34832;SDS011;55941;50.800;4.342;2023-02-26T09:09:05;9.82;;;1.73;;
34832;SDS011;55941;50.800;4.342;2023-02-26T09:11:31;11.38;;;1.58;;
34832;SDS011;55941;50.800;4.342;2023-02-26T09:13:57;12.55;;;1.88;;
34832;SDS011;55941;50.800;4.342;2023-02-26T09:16:23;9.10;;;2.95;;
34832;SDS011;55941;50.800;4.342;2023-02-26T09:18:50;10.50;;;1.67;;
34832;SDS011;55941;50.800;4.342;2023-02-26T09:21:16;13.43;;;1.98;;
34832;SDS011;55941;50.800;4.342;2023-02-26T09:23:42;17.48;;;1.85;;
34832;SDS011;55941;50.800;4.342;2023-02-26T09:26:08;7.88;;;1.50;;
34832;SDS011;55941;50.800;4.342;2023-02-26T09:28:34;9.93;;;1.60;;
34832;SDS011;55941;50.800;4.342;2023-02-26T09:31:00;11.75;;;1.50;;
34832;SDS011;55941;50.800;4.342;2023-02-26T09:33:25;8.60;;;1.80;;
34832;SDS011;55941;50.800;4.342;2023-02-26T09:35:51;5.57;;;1.90;;
34832;SDS011;55941;50.800;4.342;2023-02-26T09:38:17;11.82;;;1.92;;
34832;SDS011;55941;50.800;4.342;2023-02-26T09:40:51;6.22;;;1.42;;
34832;SDS011;55941;50.800;4.342;2023-02-26T09:46:26;8.30;;;1.02;;
34832;SDS011;55941;50.800;4.342;2023-02-26T09:54:45;7.00;;;1.02;;
34832;SDS011;55941;50.800;4.342;2023-02-26T09:57:17;14.73;;;2.28;;
34832;SDS011;55941;50.800;4.342;2023-02-26T09:59:53;6.22;;;1.15;;
34832;SDS011;55941;50.800;4.342;2023-02-26T10:07:47;6.22;;;1.00;;
34832;SDS011;55941;50.800;4.342;2023-02-26T10:12:53;2.72;;;0.90;;
34832;SDS011;55941;50.800;4.342;2023-02-26T10:15:26;15.10;;;1.50;;
34832;SDS011;55941;50.800;4.342;2023-02-26T10:18:24;9.15;;;1.45;;
34832;SDS011;55941;50.800;4.342;2023-02-26T10:21:13;15.43;;;1.27;;
34832;SDS011;55941;50.800;4.342;2023-02-26T10:24:03;4.60;;;1.10;;
34832;SDS011;55941;50.800;4.342;2023-02-26T10:26:39;5.97;;;1.15;;
34832;SDS011;55941;50.800;4.342;2023-02-26T10:32:01;3.90;;;1.30;;
34832;SDS011;55941;50.800;4.342;2023-02-26T10:34:30;7.05;;;1.52;;
34832;SDS011;55941;50.800;4.342;2023-02-26T10:37:23;4.03;;;0.98;;
34832;SDS011;55941;50.800;4.342;2023-02-26T10:40:16;5.22;;;1.10;;
34832;SDS011;55941;50.800;4.342;2023-02-26T10:45:29;4.18;;;0.98;;
34832;SDS011;55941;50.800;4.342;2023-02-26T10:48:19;7.63;;;1.40;;
34832;SDS011;55941;50.800;4.342;2023-02-26T10:50:55;2.40;;;0.90;;
34832;SDS011;55941;50.800;4.342;2023-02-26T10:53:22;8.50;;;1.20;;
34832;SDS011;55941;50.800;4.342;2023-02-26T10:55:51;3.75;;;0.98;;
34832;SDS011;55941;50.800;4.342;2023-02-26T10:58:31;6.35;;;1.48;;
34832;SDS011;55941;50.800;4.342;2023-02-26T11:00:57;5.25;;;0.88;;
34832;SDS011;55941;50.800;4.342;2023-02-26T11:03:34;5.47;;;1.30;;
34832;SDS011;55941;50.800;4.342;2023-02-26T11:06:03;5.82;;;1.00;;
34832;SDS011;55941;50.800;4.342;2023-02-26T11:08:31;3.97;;;1.15;;
34832;SDS011;55941;50.800;4.342;2023-02-26T11:11:00;4.05;;;1.30;;
34832;SDS011;55941;50.800;4.342;2023-02-26T11:13:30;8.68;;;1.38;;
34832;SDS011;55941;50.800;4.342;2023-02-26T11:15:58;6.15;;;0.82;;
34832;SDS011;55941;50.800;4.342;2023-02-26T11:18:29;3.00;;;1.08;;
34832;SDS011;55941;50.800;4.342;2023-02-26T11:21:02;4.15;;;0.82;;
34832;SDS011;55941;50.800;4.342;2023-02-26T11:23:30;4.97;;;0.90;;
34832;SDS011;55941;50.800;4.342;2023-02-26T11:26:07;5.05;;;0.80;;
34832;SDS011;55941;50.800;4.342;2023-02-26T11:28:45;4.65;;;0.65;;
34832;SDS011;55941;50.800;4.342;2023-02-26T11:31:19;2.88;;;1.00;;
34832;SDS011;55941;50.800;4.342;2023-02-26T11:33:51;6.35;;;0.98;;
34832;SDS011;55941;50.800;4.342;2023-02-26T11:36:22;3.45;;;1.02;;
34832;SDS011;55941;50.800;4.342;2023-02-26T11:38:52;3.92;;;1.20;;
34832;SDS011;55941;50.800;4.342;2023-02-26T11:41:26;3.00;;;0.98;;
34832;SDS011;55941;50.800;4.342;2023-02-26T11:43:57;2.42;;;0.63;;
34832;SDS011;55941;50.800;4.342;2023-02-26T11:46:29;3.30;;;0.85;;
34832;SDS011;55941;50.800;4.342;2023-02-26T11:48:57;5.35;;;1.40;;
34832;SDS011;55941;50.800;4.342;2023-02-26T11:51:24;5.60;;;1.48;;
34832;SDS011;55941;50.800;4.342;2023-02-26T11:53:55;5.57;;;1.00;;
34832;SDS011;55941;50.800;4.342;2023-02-26T11:56:29;7.53;;;1.05;;
34832;SDS011;55941;50.800;4.342;2023-02-26T11:59:06;4.82;;;1.40;;
34832;SDS011;55941;50.800;4.342;2023-02-26T12:01:44;5.15;;;1.02;;
34832;SDS011;55941;50.800;4.342;2023-02-26T12:04:10;7.95;;;0.90;;
34832;SDS011;55941;50.800;4.342;2023-02-26T12:06:38;4.50;;;1.17;;
34832;SDS011;55941;50.800;4.342;2023-02-26T12:09:08;3.67;;;0.88;;
34832;SDS011;55941;50.800;4.342;2023-02-26T12:11:41;2.28;;;0.93;;
34832;SDS011;55941;50.800;4.342;2023-02-26T12:14:15;5.90;;;0.95;;
34832;SDS011;55941;50.800;4.342;2023-02-26T12:22:45;3.08;;;1.00;;
34832;SDS011;55941;50.800;4.342;2023-02-26T12:28:30;6.43;;;1.00;;
34832;SDS011;55941;50.800;4.342;2023-02-26T12:31:23;4.50;;;1.10;;
34832;SDS011;55941;50.800;4.342;2023-02-26T12:36:49;7.80;;;0.90;;
34832;SDS011;55941;50.800;4.342;2023-02-26T12:39:44;3.50;;;1.10;;
34832;SDS011;55941;50.800;4.342;2023-02-26T12:42:46;4.10;;;1.40;;
34832;SDS011;55941;50.800;4.342;2023-02-26T12:51:05;3.05;;;1.10;;
34832;SDS011;55941;50.800;4.342;2023-02-26T12:54:01;5.70;;;1.00;;
34832;SDS011;55941;50.800;4.342;2023-02-26T12:56:55;6.47;;;1.00;;
34832;SDS011;55941;50.800;4.342;2023-02-26T13:02:19;2.33;;;0.90;;
34832;SDS011;55941;50.800;4.342;2023-02-26T13:12:57;5.20;;;0.90;;
34832;SDS011;55941;50.800;4.342;2023-02-26T13:21:08;1.73;;;1.00;;
34832;SDS011;55941;50.800;4.342;2023-02-26T13:23:56;2.53;;;1.08;;
34832;SDS011;55941;50.800;4.342;2023-02-26T13:26:29;5.68;;;1.73;;
34832;SDS011;55941;50.800;4.342;2023-02-26T13:29:01;6.10;;;1.15;;
34832;SDS011;55941;50.800;4.342;2023-02-26T13:37:03;4.75;;;1.23;;
34832;SDS011;55941;50.800;4.342;2023-02-26T13:53:50;2.60;;;0.90;;
34832;SDS011;55941;50.800;4.342;2023-02-26T14:01:48;2.97;;;0.90;;
34832;SDS011;55941;50.800;4.342;2023-02-26T14:06:46;2.50;;;0.85;;
34832;SDS011;55941;50.800;4.342;2023-02-26T14:14:42;1.73;;;0.65;;
34832;SDS011;55941;50.800;4.342;2023-02-26T14:22:40;1.60;;;0.73;;
34832;SDS011;55941;50.800;4.342;2023-02-26T14:28:15;0.93;;;0.50;;
34832;SDS011;55941;50.800;4.342;2023-02-26T14:31:03;19.80;;;1.73;;
34832;SDS011;55941;50.800;4.342;2023-02-26T14:33:39;1.88;;;0.80;;
34832;SDS011;55941;50.800;4.342;2023-02-26T14:41:55;5.13;;;1.08;;
34832;SDS011;55941;50.800;4.342;2023-02-26T14:44:25;3.00;;;1.00;;
34832;SDS011;55941;50.800;4.342;2023-02-26T14:46:54;1.95;;;0.60;;
34832;SDS011;55941;50.800;4.342;2023-02-26T14:49:29;5.32;;;0.80;;
34832;SDS011;55941;50.800;4.342;2023-02-26T14:54:47;5.22;;;0.70;;
34832;SDS011;55941;50.800;4.342;2023-02-26T15:00:12;2.42;;;0.90;;
34832;SDS011;55941;50.800;4.342;2023-02-26T15:03:10;4.00;;;1.13;;
34832;SDS011;55941;50.800;4.342;2023-02-26T15:05:40;2.90;;;0.90;;
34832;SDS011;55941;50.800;4.342;2023-02-26T15:24:38;2.78;;;0.98;;
34832;SDS011;55941;50.800;4.342;2023-02-26T15:27:05;2.60;;;0.95;;
34832;SDS011;55941;50.800;4.342;2023-02-26T15:29:35;6.25;;;1.48;;
34832;SDS011;55941;50.800;4.342;2023-02-26T15:32:20;3.35;;;1.30;;
34832;SDS011;55941;50.800;4.342;2023-02-26T15:35:02;7.47;;;1.58;;
34832;SDS011;55941;50.800;4.342;2023-02-26T15:37:31;3.50;;;1.17;;
34832;SDS011;55941;50.800;4.342;2023-02-26T15:39:58;5.60;;;1.55;;
34832;SDS011;55941;50.800;4.342;2023-02-26T15:42:29;3.77;;;1.53;;
34832;SDS011;55941;50.800;4.342;2023-02-26T15:44:59;3.70;;;1.77;;
34832;SDS011;55941;50.800;4.342;2023-02-26T15:47:27;5.95;;;2.47;;
34832;SDS011;55941;50.800;4.342;2023-02-26T15:49:55;8.65;;;1.58;;
34832;SDS011;55941;50.800;4.342;2023-02-26T15:52:23;9.55;;;2.95;;
34832;SDS011;55941;50.800;4.342;2023-02-26T15:54:52;6.53;;;2.38;;
34832;SDS011;55941;50.800;4.342;2023-02-26T15:57:21;26.65;;;10.00;;
34832;SDS011;55941;50.800;4.342;2023-02-26T15:59:50;38.05;;;12.23;;
34832;SDS011;55941;50.800;4.342;2023-02-26T16:02:19;5.93;;;2.33;;
34832;SDS011;55941;50.800;4.342;2023-02-26T16:04:55;5.03;;;1.42;;
34832;SDS011;55941;50.800;4.342;2023-02-26T16:07:21;6.20;;;2.85;;
34832;SDS011;55941;50.800;4.342;2023-02-26T16:09:49;30.50;;;14.98;;
34832;SDS011;55941;50.800;4.342;2023-02-26T16:12:20;9.50;;;3.90;;
34832;SDS011;55941;50.800;4.342;2023-02-26T16:14:51;7.47;;;3.85;;
34832;SDS011;55941;50.800;4.342;2023-02-26T16:17:29;10.18;;;1.90;;
34832;SDS011;55941;50.800;4.342;2023-02-26T16:20:01;6.03;;;3.20;;
34832;SDS011;55941;50.800;4.342;2023-02-26T16:22:34;10.10;;;3.92;;
34832;SDS011;55941;50.800;4.342;2023-02-26T16:25:13;9.15;;;4.38;;
34832;SDS011;55941;50.800;4.342;2023-02-26T16:28:02;5.65;;;2.25;;
34832;SDS011;55941;50.800;4.342;2023-02-26T16:30:35;6.20;;;2.03;;
34832;SDS011;55941;50.800;4.342;2023-02-26T16:35:31;2.72;;;1.15;;
34832;SDS011;55941;50.800;4.342;2023-02-26T16:38:16;6.22;;;1.88;;
34832;SDS011;55941;50.800;4.342;2023-02-26T16:40:58;4.25;;;1.55;;
34832;SDS011;55941;50.800;4.342;2023-02-26T16:43:47;6.97;;;1.58;;
34832;SDS011;55941;50.800;4.342;2023-02-26T16:46:21;6.57;;;1.55;;
34832;SDS011;55941;50.800;4.342;2023-02-26T16:49:02;2.42;;;1.17;;
34832;SDS011;55941;50.800;4.342;2023-02-26T16:51:34;6.00;;;1.38;;
34832;SDS011;55941;50.800;4.342;2023-02-26T16:54:07;5.55;;;1.35;;
34832;SDS011;55941;50.800;4.342;2023-02-26T16:56:40;4.70;;;1.48;;
34832;SDS011;55941;50.800;4.342;2023-02-26T16:59:16;5.50;;;1.83;;
34832;SDS011;55941;50.800;4.342;2023-02-26T17:01:56;11.27;;;1.73;;
34832;SDS011;55941;50.800;4.342;2023-02-26T17:04:29;5.47;;;1.20;;
34832;SDS011;55941;50.800;4.342;2023-02-26T17:06:58;5.65;;;1.30;;
34832;SDS011;55941;50.800;4.342;2023-02-26T17:09:26;7.03;;;1.73;;
34832;SDS011;55941;50.800;4.342;2023-02-26T17:12:13;3.38;;;1.00;;
34832;SDS011;55941;50.800;4.342;2023-02-26T17:14:56;3.08;;;1.45;;
34832;SDS011;55941;50.800;4.342;2023-02-26T17:17:25;3.72;;;1.50;;
34832;SDS011;55941;50.800;4.342;2023-02-26T17:19:51;3.97;;;1.65;;
34832;SDS011;55941;50.800;4.342;2023-02-26T17:22:21;4.70;;;1.70;;
34832;SDS011;55941;50.800;4.342;2023-02-26T17:24:51;5.13;;;1.65;;
34832;SDS011;55941;50.800;4.342;2023-02-26T17:27:35;7.28;;;2.17;;
34832;SDS011;55941;50.800;4.342;2023-02-26T17:30:02;9.70;;;2.30;;
34832;SDS011;55941;50.800;4.342;2023-02-26T17:32:30;9.05;;;1.90;;
34832;SDS011;55941;50.800;4.342;2023-02-26T17:34:57;4.82;;;1.90;;
34832;SDS011;55941;50.800;4.342;2023-02-26T17:37:24;8.38;;;2.05;;
34832;SDS011;55941;50.800;4.342;2023-02-26T17:39:57;12.20;;;2.35;;
34832;SDS011;55941;50.800;4.342;2023-02-26T17:42:23;6.38;;;1.95;;
34832;SDS011;55941;50.800;4.342;2023-02-26T17:44:50;8.52;;;1.70;;
34832;SDS011;55941;50.800;4.342;2023-02-26T17:47:20;6.38;;;1.77;;
34832;SDS011;55941;50.800;4.342;2023-02-26T17:49:48;8.48;;;2.55;;
34832;SDS011;55941;50.800;4.342;2023-02-26T17:52:14;9.68;;;2.15;;
34832;SDS011;55941;50.800;4.342;2023-02-26T17:54:40;7.72;;;2.30;;
34832;SDS011;55941;50.800;4.342;2023-02-26T17:57:15;7.30;;;3.20;;
34832;SDS011;55941;50.800;4.342;2023-02-26T17:59:43;10.23;;;3.22;;
34832;SDS011;55941;50.800;4.342;2023-02-26T18:02:13;24.80;;;8.38;;
34832;SDS011;55941;50.800;4.342;2023-02-26T18:04:47;13.13;;;4.45;;
34832;SDS011;55941;50.800;4.342;2023-02-26T18:07:14;13.60;;;6.85;;
34832;SDS011;55941;50.800;4.342;2023-02-26T18:09:44;15.00;;;5.15;;
34832;SDS011;55941;50.800;4.342;2023-02-26T18:12:15;13.80;;;3.33;;
34832;SDS011;55941;50.800;4.342;2023-02-26T18:14:43;8.90;;;4.10;;